Time;durP1;ratioP1;P1;durP2;ratioP2;P2;SDS_P1;SDS_P2;PMS_P1;PMS_P2;Temp;Humidity;BMP_temperature;BMP_pressure;BME280_temperature;BME280_humidity;BME280_pressure;Samples;Min_cycle;Max_cycle;Signal;HPM_P1;HPM_P2
2021/03/04 00:00:07;;;;;;;20.98;14.52;;;21.90;30.50;;;;;;5048954;28;20139;-64
2021/03/04 00:02:34;;;;;;;21.27;14.48;;;21.90;30.50;;;;;;5049148;28;20215;-62
2021/03/04 00:05:01;;;;;;;20.65;14.32;;;21.90;30.50;;;;;;5049601;28;20140;-64
2021/03/04 00:07:27;;;;;;;19.65;13.63;;;21.90;30.50;;;;;;5048917;28;20527;-63
2021/03/04 00:09:54;;;;;;;21.48;14.63;;;21.90;30.50;;;;;;5048981;28;20140;-64
2021/03/04 00:12:21;;;;;;;18.98;13.63;;;21.90;30.60;;;;;;5048879;28;20387;-64
2021/03/04 00:14:47;;;;;;;20.58;13.57;;;21.90;30.60;;;;;;5049274;28;20325;-64
2021/03/04 00:17:26;;;;;;;21.17;13.85;;;21.90;30.60;;;;;;5049036;28;20053;-64
2021/03/04 00:19:53;;;;;;;22.08;14.35;;;21.80;30.50;;;;;;5049053;28;20068;-64
2021/03/04 00:22:20;;;;;;;21.08;12.75;;;21.90;30.60;;;;;;5047992;28;20172;-64
2021/03/04 00:24:49;;;;;;;21.52;14.30;;;21.90;30.60;;;;;;5046852;28;20041;-64
2021/03/04 00:27:16;;;;;;;21.40;13.95;;;21.90;30.60;;;;;;5048802;28;20063;-64
2021/03/04 00:29:43;;;;;;;18.35;12.55;;;21.80;30.50;;;;;;5048585;28;20136;-64
2021/03/04 00:32:10;;;;;;;21.05;14.30;;;21.90;30.60;;;;;;5047465;28;20049;-64
2021/03/04 00:34:36;;;;;;;20.98;13.88;;;21.80;30.50;;;;;;5048100;28;20045;-64
2021/03/04 00:37:03;;;;;;;19.35;13.23;;;21.80;30.50;;;;;;5047324;28;20080;-64
2021/03/04 00:39:30;;;;;;;19.13;12.05;;;21.80;30.50;;;;;;5048467;28;20104;-64
2021/03/04 00:41:56;;;;;;;21.17;13.65;;;21.80;30.50;;;;;;5048414;28;20102;-64
2021/03/04 00:44:24;;;;;;;18.58;13.23;;;21.80;30.50;;;;;;5048477;28;20049;-64
2021/03/04 00:46:51;;;;;;;18.45;12.90;;;21.80;30.50;;;;;;5047445;28;20160;-63
2021/03/04 00:49:17;;;;;;;20.70;13.75;;;21.80;30.50;;;;;;5048332;28;20045;-64
2021/03/04 00:51:44;;;;;;;17.15;12.23;;;21.80;30.50;;;;;;5047703;28;20136;-64
2021/03/04 00:54:11;;;;;;;18.50;12.13;;;21.80;30.50;;;;;;5048070;28;20080;-63
2021/03/04 00:56:37;;;;;;;19.40;13.23;;;21.80;30.50;;;;;;5048024;28;20083;-64
2021/03/04 00:59:04;;;;;;;17.70;12.48;;;21.80;30.50;;;;;;5047990;28;20045;-64
2021/03/04 01:01:32;;;;;;;18.90;12.25;;;21.80;30.50;;;;;;5047936;28;20131;-64
2021/03/04 01:03:59;;;;;;;19.05;12.35;;;21.80;30.50;;;;;;5047604;28;20351;-64
2021/03/04 01:06:25;;;;;;;18.58;12.18;;;21.80;30.50;;;;;;5047712;28;20526;-64
2021/03/04 01:08:52;;;;;;;16.25;11.48;;;21.80;30.50;;;;;;5048326;28;20117;-64
2021/03/04 01:11:18;;;;;;;17.70;12.02;;;21.80;30.50;;;;;;5046913;28;20127;-63
2021/03/04 01:13:46;;;;;;;17.40;11.30;;;21.80;30.50;;;;;;5046351;28;20141;-64
2021/03/04 01:16:12;;;;;;;19.17;12.82;;;21.70;30.40;;;;;;5048048;28;20132;-64
2021/03/04 01:18:39;;;;;;;18.25;11.85;;;21.80;30.50;;;;;;5047727;28;20483;-64
2021/03/04 01:21:06;;;;;;;16.05;11.07;;;21.80;30.50;;;;;;5047671;28;20498;-63
2021/03/04 01:23:33;;;;;;;17.25;11.57;;;21.70;30.40;;;;;;5047290;28;20135;-63
2021/03/04 01:26:00;;;;;;;16.95;11.48;;;21.80;30.50;;;;;;5047944;28;20072;-64
2021/03/04 01:28:27;;;;;;;18.33;11.85;;;21.70;30.40;;;;;;5047674;28;20086;-64
2021/03/04 01:30:54;;;;;;;20.38;12.23;;;21.70;30.40;;;;;;5032101;28;20056;-64
2021/03/04 01:33:21;;;;;;;17.83;11.10;;;21.80;30.50;;;;;;5026850;28;20127;-64
2021/03/04 01:35:48;;;;;;;15.93;11.10;;;21.80;30.50;;;;;;5025444;28;20241;-64
2021/03/04 01:38:15;;;;;;;15.48;10.93;;;21.70;30.40;;;;;;5027284;28;20050;-64
2021/03/04 01:40:43;;;;;;;19.80;12.15;;;21.70;30.40;;;;;;5027523;28;20045;-64
2021/03/04 01:43:09;;;;;;;15.98;11.70;;;21.70;30.40;;;;;;5027482;28;20132;-63
2021/03/04 01:45:36;;;;;;;14.05;10.52;;;21.70;30.40;;;;;;5009981;28;20186;-64
2021/03/04 01:48:05;;;;;;;13.68;10.20;;;21.70;30.40;;;;;;5027542;28;20169;-64
2021/03/04 01:50:32;;;;;;;17.10;10.93;;;21.70;30.40;;;;;;5027020;28;20061;-64
2021/03/04 01:52:59;;;;;;;14.57;10.27;;;21.70;30.40;;;;;;5027415;28;20136;-64
2021/03/04 01:55:26;;;;;;;17.33;11.00;;;21.70;30.40;;;;;;5026114;28;20042;-63
2021/03/04 01:57:56;;;;;;;15.18;10.57;;;21.70;30.40;;;;;;5027674;28;20049;-63
2021/03/04 02:00:23;;;;;;;14.68;10.18;;;21.70;30.40;;;;;;5027286;28;20041;-63
2021/03/04 02:02:50;;;;;;;13.60;9.77;;;21.70;30.40;;;;;;5026684;28;20141;-64
2021/03/04 02:05:18;;;;;;;16.08;10.65;;;21.60;30.40;;;;;;5027494;28;20045;-64
2021/03/04 02:08:09;;;;;;;14.73;10.13;;;21.70;30.40;;;;;;5026767;28;20487;-64
2021/03/04 02:10:57;;;;;;;15.95;10.95;;;21.60;30.40;;;;;;5025756;28;20136;-64
2021/03/04 02:13:42;;;;;;;13.95;9.85;;;21.70;30.50;;;;;;5027093;28;20144;-64
2021/03/04 02:16:17;;;;;;;12.43;9.30;;;21.60;30.40;;;;;;5028381;28;20069;-64
2021/03/04 02:18:56;;;;;;;13.07;9.73;;;21.60;30.40;;;;;;5031324;28;20086;-64
2021/03/04 02:21:44;;;;;;;15.23;9.50;;;21.70;30.40;;;;;;5014641;28;20435;-64
2021/03/04 02:24:47;;;;;;;14.93;9.90;;;21.60;30.40;;;;;;5031356;28;20041;-64
2021/03/04 02:27:15;;;;;;;13.45;9.20;;;21.60;30.40;;;;;;5030120;28;20080;-63
2021/03/04 02:29:50;;;;;;;14.63;10.30;;;21.70;30.40;;;;;;5031452;28;20053;-64
2021/03/04 02:32:23;;;;;;;15.20;9.50;;;21.60;30.30;;;;;;5030336;28;20133;-63
2021/03/04 02:34:56;;;;;;;13.05;9.20;;;21.60;30.40;;;;;;5030701;28;20042;-63
2021/03/04 02:37:24;;;;;;;13.75;9.70;;;21.60;30.40;;;;;;5030607;28;20080;-63
2021/03/04 02:39:54;;;;;;;13.30;9.25;;;21.60;30.30;;;;;;5031067;28;20048;-64
2021/03/04 02:42:23;;;;;;;14.00;9.15;;;21.60;30.30;;;;;;5030330;28;20083;-63
2021/03/04 02:44:53;;;;;;;13.95;9.65;;;21.60;30.40;;;;;;5031032;28;20449;-64
2021/03/04 02:47:21;;;;;;;12.82;8.77;;;21.60;30.40;;;;;;5030736;28;20368;-64
2021/03/04 02:49:49;;;;;;;12.38;9.20;;;21.60;30.40;;;;;;5029564;28;20172;-64
2021/03/04 02:52:18;;;;;;;12.98;8.90;;;21.60;30.40;;;;;;5030237;28;20109;-63
2021/03/04 02:54:46;;;;;;;11.38;7.95;;;21.60;30.40;;;;;;5030788;28;20559;-64
2021/03/04 02:57:14;;;;;;;11.80;8.32;;;21.50;30.30;;;;;;5030591;28;20338;-64
2021/03/04 02:59:42;;;;;;;11.93;8.35;;;21.60;30.40;;;;;;5046141;28;20080;-64
2021/03/04 03:02:10;;;;;;;12.35;8.88;;;21.60;30.40;;;;;;5030071;28;20080;-64
2021/03/04 03:04:40;;;;;;;13.00;8.23;;;21.60;30.40;;;;;;5049407;28;20334;-63
2021/03/04 03:07:09;;;;;;;11.80;8.77;;;21.60;30.40;;;;;;5036750;28;20128;-64
2021/03/04 03:09:42;;;;;;;10.57;8.23;;;21.60;30.40;;;;;;5032156;28;20045;-63
2021/03/04 03:12:11;;;;;;;13.73;8.82;;;21.50;30.30;;;;;;5029814;28;20049;-64
2021/03/04 03:14:38;;;;;;;12.20;8.50;;;21.60;30.40;;;;;;5045191;28;20046;-65
2021/03/04 03:17:05;;;;;;;12.32;8.27;;;21.60;30.40;;;;;;5030355;28;20087;-64
2021/03/04 03:19:35;;;;;;;10.63;7.95;;;21.60;30.40;;;;;;5030202;28;20042;-64
2021/03/04 03:22:03;;;;;;;11.82;8.23;;;21.60;30.40;;;;;;5029968;28;20049;-63
2021/03/04 03:24:30;;;;;;;11.25;7.65;;;21.60;30.40;;;;;;5030731;28;20054;-63
2021/03/04 03:26:56;;;;;;;11.10;8.18;;;21.60;30.30;;;;;;5030356;28;20303;-64
2021/03/04 03:29:23;;;;;;;10.05;7.18;;;21.50;30.30;;;;;;5029966;28;20602;-63
2021/03/04 03:31:53;;;;;;;10.70;7.97;;;21.50;30.30;;;;;;5044981;28;20530;-63
2021/03/04 03:34:21;;;;;;;9.90;7.45;;;21.50;30.30;;;;;;5028436;28;20064;-64
2021/03/04 03:36:48;;;;;;;10.32;7.22;;;21.50;30.30;;;;;;5029977;28;20545;-61
2021/03/04 03:39:14;;;;;;;11.55;8.02;;;21.50;30.30;;;;;;5029527;28;20720;-64
2021/03/04 03:41:42;;;;;;;11.02;8.27;;;21.50;30.80;;;;;;5029823;28;20076;-64
2021/03/04 03:44:12;;;;;;;12.10;8.25;;;21.50;30.30;;;;;;5044709;28;20111;-63
2021/03/04 03:46:40;;;;;;;11.70;7.97;;;21.50;30.30;;;;;;5028694;28;20073;-63
2021/03/04 03:49:11;;;;;;;10.77;7.15;;;21.50;30.30;;;;;;5028657;28;20283;-63
2021/03/04 03:51:37;;;;;;;;;;;21.50;30.30;;;;;;5028799;28;20084;-64
2021/03/04 03:54:06;;;;;;;10.60;6.90;;;21.50;30.30;;;;;;5029371;28;20516;-63
2021/03/04 03:56:38;;;;;;;10.30;7.22;;;21.50;30.30;;;;;;5029392;28;20387;-64
2021/03/04 03:59:08;;;;;;;10.32;7.13;;;21.50;30.30;;;;;;5044808;28;20045;-63
2021/03/04 04:01:38;;;;;;;8.70;6.70;;;21.50;30.30;;;;;;5029331;28;20163;-64
2021/03/04 04:04:05;;;;;;;9.48;7.30;;;21.50;30.30;;;;;;5028939;28;20653;-64
2021/03/04 04:06:32;;;;;;;10.15;7.68;;;21.50;30.30;;;;;;5030257;28;20077;-64
2021/03/04 04:09:00;;;;;;;10.55;7.50;;;21.50;30.30;;;;;;5031360;28;20046;-64
2021/03/04 04:11:33;;;;;;;9.00;6.82;;;21.50;30.30;;;;;;5033645;28;20052;-63
2021/03/04 04:14:03;;;;;;;11.32;6.88;;;21.50;30.30;;;;;;5032073;28;20045;-64
2021/03/04 04:16:30;;;;;;;10.63;7.43;;;21.50;30.30;;;;;;5032307;28;20115;-64
2021/03/04 04:18:58;;;;;;;8.57;5.93;;;21.50;30.30;;;;;;5031798;28;20095;-63
2021/03/04 04:21:25;;;;;;;11.38;7.80;;;21.50;30.20;;;;;;5031488;28;20095;-64
2021/03/04 04:23:52;;;;;;;9.05;6.47;;;21.50;30.20;;;;;;5033232;28;20109;-64
2021/03/04 04:26:19;;;;;;;9.32;6.85;;;21.50;30.20;;;;;;5034300;28;20091;-66
2021/03/04 04:28:46;;;;;;;9.15;6.38;;;21.50;30.20;;;;;;5030047;28;20052;-64
2021/03/04 04:31:13;;;;;;;9.75;6.85;;;21.50;30.20;;;;;;5035462;28;20115;-63
2021/03/04 04:33:44;;;;;;;9.07;6.47;;;21.40;30.20;;;;;;5040518;28;20526;-63
2021/03/04 04:36:10;;;;;;;7.30;6.05;;;21.40;30.20;;;;;;5028857;28;20492;-63
2021/03/04 04:38:37;;;;;;;7.53;6.15;;;21.40;30.20;;;;;;5027654;28;20045;-64
2021/03/04 04:41:04;;;;;;;8.48;6.60;;;21.40;30.20;;;;;;5028557;28;20081;-64
2021/03/04 04:43:31;;;;;;;7.53;6.00;;;21.50;30.30;;;;;;5028646;28;20100;-64
2021/03/04 04:45:57;;;;;;;9.68;6.38;;;21.40;30.20;;;;;;5030857;28;20048;-62
2021/03/04 04:48:24;;;;;;;9.00;6.43;;;21.40;30.20;;;;;;5037520;28;20132;-63
2021/03/04 04:51:11;;;;;;;7.70;6.10;;;21.40;30.20;;;;;;5031919;28;20060;-64
2021/03/04 04:53:40;;;;;;;9.15;6.32;;;21.40;30.20;;;;;;5034426;28;20097;-63
2021/03/04 04:56:08;;;;;;;9.55;6.30;;;21.40;30.20;;;;;;5036080;28;20107;-64
2021/03/04 04:58:38;;;;;;;7.30;5.97;;;21.40;30.30;;;;;;5037955;28;20045;-64
2021/03/04 05:01:05;;;;;;;8.35;6.57;;;21.40;30.20;;;;;;5035151;28;20052;-63
2021/03/04 05:03:32;;;;;;;8.45;6.45;;;21.40;30.30;;;;;;5038607;28;20052;-64
2021/03/04 05:05:59;;;;;;;9.70;7.03;;;21.40;30.20;;;;;;5030982;28;20422;-63
2021/03/04 05:08:25;;;;;;;7.63;5.93;;;21.40;30.20;;;;;;5031399;28;20128;-64
2021/03/04 05:10:52;;;;;;;8.95;6.00;;;21.40;30.20;;;;;;5035708;28;20057;-63
2021/03/04 05:13:19;;;;;;;8.68;5.80;;;21.40;30.20;;;;;;5041652;28;20081;-63
2021/03/04 05:15:46;;;;;;;8.27;5.95;;;21.40;30.20;;;;;;5037343;28;20479;-64
2021/03/04 05:18:13;;;;;;;7.47;5.45;;;21.40;30.20;;;;;;5036177;28;20115;-64
2021/03/04 05:20:41;;;;;;;10.10;6.75;;;21.40;30.20;;;;;;5032665;28;20045;-66
2021/03/04 05:23:10;;;;;;;7.43;5.63;;;21.40;30.20;;;;;;5037205;28;20098;-63
2021/03/04 05:25:41;;;;;;;7.63;5.75;;;21.40;30.20;;;;;;5039728;28;20042;-64
2021/03/04 05:28:09;;;;;;;8.95;6.40;;;21.40;30.10;;;;;;5031675;28;20044;-64
2021/03/04 05:30:35;;;;;;;7.53;5.53;;;21.40;30.10;;;;;;5036067;28;20038;-64
2021/03/04 05:33:02;;;;;;;9.10;6.30;;;21.40;30.10;;;;;;5032101;28;20277;-64
2021/03/04 05:35:29;;;;;;;8.77;5.47;;;21.40;30.10;;;;;;5037402;28;20582;-63
2021/03/04 05:37:56;;;;;;;8.70;5.82;;;21.40;30.20;;;;;;5040697;28;20132;-63
2021/03/04 05:40:23;;;;;;;8.43;5.80;;;21.40;30.10;;;;;;5033968;28;20084;-63
2021/03/04 05:42:50;;;;;;;6.63;5.32;;;21.40;30.10;;;;;;5033045;28;20064;-63
2021/03/04 05:45:19;;;;;;;7.03;5.78;;;21.40;30.10;;;;;;5032574;28;20068;-63
2021/03/04 05:47:52;;;;;;;8.27;5.38;;;21.40;30.10;;;;;;5034201;28;20052;-63
2021/03/04 05:50:21;;;;;;;8.48;6.05;;;21.40;30.20;;;;;;5032968;28;20076;-64
2021/03/04 05:52:54;;;;;;;10.27;6.20;;;21.40;30.10;;;;;;5030799;28;20210;-63
2021/03/04 05:55:22;;;;;;;8.35;5.72;;;21.40;30.10;;;;;;5033352;28;20381;-63
2021/03/04 05:57:51;;;;;;;8.40;5.65;;;21.40;30.20;;;;;;5030681;28;20056;-64
2021/03/04 06:00:19;;;;;;;7.45;5.75;;;21.40;30.20;;;;;;5028702;28;20082;-64
2021/03/04 06:02:47;;;;;;;8.23;5.30;;;21.40;30.20;;;;;;5000598;28;20568;-64
2021/03/04 06:05:14;;;;;;;8.23;5.38;;;21.40;30.20;;;;;;5039948;28;20063;-64
2021/03/04 06:07:44;;;;;;;7.20;5.75;;;21.40;30.10;;;;;;5040346;28;20053;-64
2021/03/04 06:10:13;;;;;;;7.60;5.43;;;21.40;30.10;;;;;;5040234;28;20052;-64
2021/03/04 06:12:41;;;;;;;6.68;5.55;;;21.40;30.00;;;;;;5036996;28;20472;-64
2021/03/04 06:15:09;;;;;;;9.07;5.72;;;21.40;30.00;;;;;;5034829;28;20406;-67
2021/03/04 06:17:37;;;;;;;9.68;6.35;;;21.50;30.00;;;;;;4999657;28;20198;-63
2021/03/04 06:20:07;;;;;;;8.30;5.68;;;21.50;30.00;;;;;;5038146;28;20132;-65
2021/03/04 06:22:36;;;;;;;9.27;6.00;;;21.50;30.00;;;;;;5002552;28;20045;-63
2021/03/04 06:25:10;;;;;;;7.78;5.95;;;21.50;30.10;;;;;;5037589;28;20955;-63
2021/03/04 06:27:41;;;;;;;8.23;6.57;;;21.60;30.10;;;;;;5036577;28;20053;-64
2021/03/04 06:30:11;;;;;;;10.02;6.97;;;21.60;30.00;;;;;;5038178;28;20297;-63
2021/03/04 06:32:41;;;;;;;8.98;6.35;;;21.70;30.10;;;;;;5034668;28;20609;-63
2021/03/04 06:35:14;;;;;;;7.25;6.03;;;21.70;30.00;;;;;;5029418;28;20917;-67
2021/03/04 06:37:45;;;;;;;8.93;6.80;;;21.80;30.00;;;;;;5033121;28;20128;-66
2021/03/04 06:40:23;;;;;;;8.88;6.38;;;21.90;30.00;;;;;;5030481;28;20199;-66
2021/03/04 06:42:51;;;;;;;8.02;6.88;;;22.00;30.00;;;;;;5046925;28;20437;-66
2021/03/04 06:45:31;;;;;;;11.07;7.50;;;22.10;29.90;;;;;;5044030;28;20132;-65
2021/03/04 06:51:49;;;;;;;;;;;22.20;29.70;;;;;;5055762;28;20051;-66
2021/03/04 06:54:23;;;;;;;9.85;6.55;;;22.30;29.40;;;;;;5085920;28;20002;-66
2021/03/04 06:56:50;;;;;;;8.70;6.40;;;22.40;29.50;;;;;;5056146;28;20040;-66
2021/03/04 06:59:17;;;;;;;9.98;6.85;;;22.50;29.80;;;;;;5073809;28;20040;-67
2021/03/04 07:01:44;;;;;;;10.35;6.07;;;22.60;30.00;;;;;;5037496;28;20055;-67
2021/03/04 07:04:15;;;;;;;9.75;7.07;;;22.60;30.30;;;;;;5034902;28;20072;-65
2021/03/04 07:06:46;;;;;;;8.45;6.43;;;22.70;30.60;;;;;;5034859;28;20053;-63
2021/03/04 07:09:14;;;;;;;9.95;6.72;;;22.80;30.70;;;;;;5032702;28;20168;-67
2021/03/04 07:11:44;;;;;;;10.85;8.50;;;22.90;30.90;;;;;;5032056;28;21214;-70
2021/03/04 07:14:12;;;;;;;11.07;7.95;;;23.00;30.80;;;;;;5033637;28;20135;-67
2021/03/04 07:16:46;;;;;;;11.82;8.48;;;23.10;30.70;;;;;;5033503;28;20037;-66
2021/03/04 07:19:16;;;;;;;9.18;7.50;;;23.20;30.90;;;;;;5031773;28;20080;-67
2021/03/04 07:21:45;;;;;;;14.43;7.15;;;23.30;30.80;;;;;;5036674;28;20045;-67
2021/03/04 07:24:13;;;;;;;9.02;7.35;;;23.30;31.30;;;;;;5033984;28;20089;-66
2021/03/04 07:26:45;;;;;;;16.80;7.90;;;23.50;31.20;;;;;;5020199;28;20608;-67
2021/03/04 07:29:13;;;;;;;11.43;8.45;;;23.60;30.90;;;;;;5030160;28;20038;-64
2021/03/04 07:31:43;;;;;;;10.93;7.82;;;23.60;30.70;;;;;;5023633;28;20083;-64
2021/03/04 07:34:19;;;;;;;8.30;7.40;;;23.70;30.50;;;;;;5033116;28;20127;-67
2021/03/04 07:36:51;;;;;;;12.77;9.10;;;23.80;30.40;;;;;;5032793;28;20041;-69
2021/03/04 07:39:34;;;;;;;12.35;8.43;;;23.90;30.10;;;;;;5032338;28;20110;-67
2021/03/04 07:49:45;;;;;;;12.13;9.13;;;24.10;29.80;;;;;;5039031;28;20078;-68
2021/03/04 07:52:25;;;;;;;11.73;8.93;;;24.20;29.30;;;;;;5039405;28;20065;-67
2021/03/04 07:54:54;;;;;;;12.75;8.85;;;24.20;28.90;;;;;;5037291;28;20565;-64
2021/03/04 07:57:26;;;;;;;11.73;7.93;;;24.30;28.90;;;;;;5057714;28;20049;-67
2021/03/04 07:59:57;;;;;;;13.35;8.70;;;24.40;29.00;;;;;;5058488;28;20073;-67
2021/03/04 08:02:33;;;;;;;12.38;8.75;;;24.50;29.00;;;;;;5049840;28;20144;-70
2021/03/04 08:05:17;;;;;;;11.75;8.27;;;24.50;29.20;;;;;;5058525;28;20053;-70
2021/03/04 08:07:48;;;;;;;11.40;8.50;;;24.70;29.10;;;;;;5053312;28;20050;-68
2021/03/04 08:10:17;;;;;;;10.88;8.23;;;24.70;28.90;;;;;;5049606;28;20061;-65
2021/03/04 08:13:00;;;;;;;10.47;9.03;;;24.80;28.80;;;;;;5052817;28;20583;-65
2021/03/04 08:15:35;;;;;;;11.70;8.77;;;24.90;28.30;;;;;;5049104;28;20068;-63
2021/03/04 08:18:23;;;;;;;12.25;9.15;;;24.90;28.50;;;;;;5048790;28;20041;-69
2021/03/04 08:20:52;;;;;;;11.63;8.20;;;25.00;27.90;;;;;;5047271;28;20126;-69
2021/03/04 08:23:20;;;;;;;10.73;8.15;;;25.00;28.10;;;;;;5053309;28;20049;-70
2021/03/04 08:25:48;;;;;;;12.07;9.25;;;25.10;28.20;;;;;;5049531;28;20120;-68
2021/03/04 08:28:29;;;;;;;12.55;9.43;;;25.10;28.10;;;;;;5050651;28;20068;-69
2021/03/04 08:31:05;;;;;;;18.98;8.52;;;25.20;28.10;;;;;;5051072;28;20040;-70
2021/03/04 08:33:33;;;;;;;12.27;9.30;;;25.30;28.20;;;;;;5046626;28;20148;-69
2021/03/04 08:36:01;;;;;;;16.50;8.90;;;25.30;28.20;;;;;;5048985;28;20136;-68
2021/03/04 08:38:39;;;;;;;17.52;9.45;;;25.30;28.20;;;;;;5047154;28;20118;-66
2021/03/04 08:41:05;;;;;;;11.38;8.98;;;25.40;28.30;;;;;;5052462;28;20127;-69
2021/03/04 08:43:32;;;;;;;12.27;8.57;;;25.40;28.30;;;;;;5054767;28;20049;-66
2021/03/04 08:46:02;;;;;;;11.10;8.40;;;25.40;28.20;;;;;;5056164;28;20099;-66
2021/03/04 08:48:30;;;;;;;;;;;25.40;28.30;;;;;;5044892;28;20055;-67
2021/03/04 08:51:03;;;;;;;8.95;7.85;;;25.40;28.30;;;;;;5067420;28;19974;-65
2021/03/04 08:53:31;;;;;;;10.23;7.75;;;25.50;28.30;;;;;;5053155;28;20087;-66
2021/03/04 08:56:03;;;;;;;9.27;8.02;;;25.50;28.30;;;;;;5050951;28;20055;-65
2021/03/04 08:58:45;;;;;;;13.98;8.25;;;25.50;28.20;;;;;;5052090;28;20075;-69
2021/03/04 09:01:13;;;;;;;12.68;8.30;;;25.50;28.10;;;;;;5046107;28;20068;-69
2021/03/04 09:03:43;;;;;;;10.18;8.18;;;25.50;28.10;;;;;;5021260;28;20072;-68
2021/03/04 09:06:15;;;;;;;11.82;8.63;;;25.50;28.00;;;;;;5027930;28;20045;-68
2021/03/04 09:08:50;;;;;;;11.00;8.07;;;25.60;28.00;;;;;;5032226;28;20061;-70
2021/03/04 09:11:30;;;;;;;11.43;8.10;;;25.60;27.80;;;;;;5030239;28;20053;-69
2021/03/04 09:14:06;;;;;;;10.40;8.18;;;25.60;27.80;;;;;;5029651;28;20060;-66
2021/03/04 09:16:50;;;;;;;11.63;8.20;;;25.60;27.70;;;;;;5025390;28;20148;-65
2021/03/04 09:19:38;;;;;;;9.55;8.02;;;25.60;27.60;;;;;;5044519;28;20647;-69
2021/03/04 09:22:11;;;;;;;12.07;8.45;;;25.70;27.60;;;;;;5030882;28;20129;-66
2021/03/04 09:24:52;;;;;;;10.00;7.93;;;25.60;27.50;;;;;;5027295;28;20124;-65
2021/03/04 09:27:20;;;;;;;11.65;7.95;;;25.60;27.30;;;;;;5028490;28;20068;-65
2021/03/04 09:29:47;;;;;;;10.55;8.52;;;25.70;27.00;;;;;;5026489;28;20471;-67
2021/03/04 09:32:13;;;;;;;12.23;9.50;;;25.60;26.90;;;;;;5028248;28;20064;-67
2021/03/04 09:34:42;;;;;;;12.20;9.15;;;25.60;26.80;;;;;;5027506;28;20126;-68
2021/03/04 09:37:21;;;;;;;11.93;8.70;;;25.50;27.00;;;;;;5032145;28;20901;-65
2021/03/04 09:39:49;;;;;;;14.60;9.30;;;25.50;27.00;;;;;;5032121;28;20045;-68
2021/03/04 09:42:18;;;;;;;10.50;8.20;;;25.50;27.00;;;;;;5039879;28;20050;-67
2021/03/04 09:44:49;;;;;;;10.33;7.97;;;25.60;27.10;;;;;;5038747;28;20115;-65
2021/03/04 09:47:25;;;;;;;11.93;9.07;;;25.60;27.40;;;;;;5054750;28;20050;-69
2021/03/04 09:49:53;;;;;;;10.60;8.43;;;25.50;26.70;;;;;;5027056;28;20057;-69
2021/03/04 09:52:23;;;;;;;10.50;8.65;;;25.50;26.80;;;;;;5029502;28;20076;-68
2021/03/04 09:55:11;;;;;;;9.85;7.68;;;25.60;26.90;;;;;;5027002;28;20053;-69
2021/03/04 09:57:40;;;;;;;10.93;7.63;;;25.60;26.90;;;;;;5027473;28;20152;-66
2021/03/04 10:00:24;;;;;;;12.07;8.52;;;25.60;27.00;;;;;;5027696;28;20770;-73
2021/03/04 10:02:52;;;;;;;11.48;8.27;;;25.60;27.00;;;;;;5020097;28;20056;-72
2021/03/04 10:05:22;;;;;;;10.80;8.33;;;25.70;27.20;;;;;;5047368;28;20047;-67
2021/03/04 10:07:56;;;;;;;12.43;8.57;;;25.70;27.20;;;;;;5053663;28;20071;-72
2021/03/04 10:10:23;;;;;;;10.48;8.32;;;25.80;27.10;;;;;;5044843;28;20619;-70
2021/03/04 10:12:58;;;;;;;11.95;8.63;;;25.80;27.10;;;;;;5056654;28;20102;-69
2021/03/04 10:15:28;;;;;;;11.05;8.13;;;25.80;27.10;;;;;;5044241;28;20073;-70
2021/03/04 10:17:56;;;;;;;11.52;8.40;;;25.80;27.00;;;;;;5047170;28;20049;-67
2021/03/04 10:20:24;;;;;;;9.25;7.82;;;25.80;26.90;;;;;;5043033;28;20033;-70
2021/03/04 10:23:32;;;;;;;12.65;8.35;;;25.80;26.80;;;;;;5045552;28;20056;-67
2021/03/04 10:25:59;;;;;;;13.45;8.20;;;25.90;26.80;;;;;;5041902;28;20654;-71
2021/03/04 10:28:25;;;;;;;11.55;7.80;;;25.80;26.60;;;;;;5044264;28;20055;-68
2021/03/04 10:30:52;;;;;;;9.90;7.97;;;25.80;26.60;;;;;;5045945;28;20698;-67
2021/03/04 10:33:20;;;;;;;10.38;7.80;;;25.80;26.60;;;;;;5042894;28;20053;-68
2021/03/04 10:36:00;;;;;;;11.07;8.18;;;25.80;26.70;;;;;;5044858;28;20162;-70
2021/03/04 10:38:27;;;;;;;;;;;25.80;26.70;;;;;;5051905;28;20083;-71
2021/03/04 10:40:54;;;;;;;8.63;6.88;;;25.80;26.60;;;;;;5060582;28;20297;-69
2021/03/04 10:43:21;;;;;;;9.25;7.15;;;25.80;26.60;;;;;;5050326;28;20675;-71
2021/03/04 10:45:47;;;;;;;10.82;7.88;;;25.80;26.60;;;;;;5049587;28;20119;-70
2021/03/04 10:48:15;;;;;;;10.57;7.18;;;25.80;26.60;;;;;;5053444;28;20052;-71
2021/03/04 10:50:44;;;;;;;9.83;7.60;;;25.80;26.70;;;;;;5048144;28;20052;-70
2021/03/04 10:53:11;;;;;;;10.57;7.20;;;25.80;26.60;;;;;;5049755;28;20128;-67
2021/03/04 10:55:40;;;;;;;10.40;7.90;;;25.80;26.60;;;;;;5043511;28;20053;-67
2021/03/04 10:58:20;;;;;;;10.07;7.50;;;25.80;26.60;;;;;;5049067;28;20087;-70
2021/03/04 11:00:46;;;;;;;10.03;7.47;;;25.80;26.60;;;;;;5052246;28;20053;-70
2021/03/04 11:03:13;;;;;;;9.77;7.03;;;25.80;26.60;;;;;;5035336;28;20056;-69
2021/03/04 11:05:40;;;;;;;10.07;7.38;;;25.80;26.50;;;;;;5051137;28;20041;-65
2021/03/04 11:08:08;;;;;;;10.82;6.75;;;25.70;26.40;;;;;;5050988;28;20052;-68
2021/03/04 11:10:34;;;;;;;8.40;7.03;;;25.80;26.50;;;;;;5056892;28;20927;-70
2021/03/04 11:16:42;;;;;;;10.20;7.63;;;25.70;26.40;;;;;;5045065;28;20032;-69
2021/03/04 11:19:10;;;;;;;10.10;7.47;;;25.70;26.30;;;;;;5046299;28;20076;-66
2021/03/04 11:21:38;;;;;;;9.90;7.38;;;25.70;26.30;;;;;;5051210;28;20048;-69
2021/03/04 11:24:07;;;;;;;8.07;6.32;;;25.70;26.30;;;;;;5056013;28;20053;-69
2021/03/04 11:26:38;;;;;;;8.68;6.68;;;25.70;26.30;;;;;;5054066;28;20162;-66
2021/03/04 11:29:06;;;;;;;9.68;6.68;;;25.70;26.30;;;;;;5049675;28;20124;-67
2021/03/04 11:31:37;;;;;;;8.85;7.10;;;25.70;26.40;;;;;;5050303;28;20199;-70
2021/03/04 11:34:06;;;;;;;;;;;25.70;26.40;;;;;;5054766;28;20063;-68
2021/03/04 11:36:34;;;;;;;9.80;7.60;;;25.70;26.30;;;;;;5052132;28;20011;-69
2021/03/04 11:39:03;;;;;;;10.82;7.72;;;25.70;26.00;;;;;;4981150;28;20049;-68
2021/03/04 11:41:30;;;;;;;11.88;7.68;;;25.70;26.20;;;;;;5011378;28;20077;-72
2021/03/04 11:43:57;;;;;;;11.00;8.10;;;25.70;26.60;;;;;;4988445;28;20128;-71
2021/03/04 11:46:25;;;;;;;12.00;7.15;;;25.70;26.70;;;;;;5035867;28;20085;-73
2021/03/04 11:48:52;;;;;;;9.25;7.10;;;25.70;26.80;;;;;;5035084;28;20053;-69
2021/03/04 11:51:21;;;;;;;10.98;7.13;;;25.80;26.80;;;;;;5013012;28;20057;-68
2021/03/04 11:53:48;;;;;;;8.27;6.95;;;25.80;26.80;;;;;;5036239;28;20483;-70
2021/03/04 11:56:22;;;;;;;8.75;6.97;;;25.80;26.70;;;;;;4996484;28;20055;-72
2021/03/04 11:59:11;;;;;;;9.85;7.03;;;25.80;26.80;;;;;;5047268;28;20076;-73
2021/03/04 12:01:39;;;;;;;9.75;7.30;;;25.90;27.20;;;;;;5045731;28;20048;-69
2021/03/04 12:04:06;;;;;;;11.73;7.40;;;25.90;26.60;;;;;;5038392;28;21390;-69
2021/03/04 12:06:34;;;;;;;8.43;6.65;;;25.90;26.60;;;;;;5048667;28;20036;-71
2021/03/04 12:09:02;;;;;;;10.52;7.10;;;25.90;26.60;;;;;;5049028;28;20056;-68
2021/03/04 12:11:43;;;;;;;12.52;8.43;;;25.80;26.50;;;;;;5052819;28;20114;-69
2021/03/04 12:14:11;;;;;;;10.02;7.53;;;25.90;26.20;;;;;;5045409;28;20098;-66
2021/03/04 12:16:42;;;;;;;11.15;7.28;;;25.80;26.10;;;;;;5055106;28;20540;-66
2021/03/04 12:19:10;;;;;;;9.98;7.45;;;25.80;26.20;;;;;;5049449;28;21333;-66
2021/03/04 12:21:37;;;;;;;11.18;7.80;;;25.90;26.30;;;;;;5058383;28;20036;-65
2021/03/04 12:24:05;;;;;;;8.63;6.25;;;25.80;26.30;;;;;;5077824;28;20048;-66
2021/03/04 12:26:52;;;;;;;10.23;6.72;;;25.90;26.40;;;;;;5056032;28;20179;-69
2021/03/04 12:29:19;;;;;;;10.68;7.03;;;25.90;26.60;;;;;;5069157;28;20049;-66
2021/03/04 12:31:45;;;;;;;8.45;6.30;;;25.90;26.50;;;;;;5075654;28;20049;-69
2021/03/04 12:34:13;;;;;;;9.20;6.85;;;25.90;26.40;;;;;;5057288;28;20045;-67
2021/03/04 12:36:42;;;;;;;9.68;6.82;;;25.90;26.40;;;;;;5035569;28;20049;-69
2021/03/04 12:39:10;;;;;;;7.80;6.20;;;25.90;26.30;;;;;;5031248;28;20053;-65
2021/03/04 12:41:37;;;;;;;9.48;6.55;;;25.90;26.40;;;;;;5035001;28;20419;-67
2021/03/04 12:44:33;;;;;;;8.93;6.43;;;25.90;26.40;;;;;;5032295;28;20172;-65
2021/03/04 12:46:59;;;;;;;7.18;5.53;;;25.90;26.50;;;;;;5047865;28;20041;-66
2021/03/04 12:49:28;;;;;;;7.43;5.90;;;25.90;26.60;;;;;;5053280;28;20119;-67
2021/03/04 12:51:55;;;;;;;7.43;6.25;;;25.90;26.70;;;;;;5054998;28;20052;-68
2021/03/04 12:54:21;;;;;;;8.48;6.30;;;25.90;26.60;;;;;;5053123;28;20055;-69
2021/03/04 12:57:02;;;;;;;6.50;5.47;;;25.90;26.70;;;;;;5049914;28;20714;-65
2021/03/04 12:59:29;;;;;;;8.93;6.10;;;25.90;26.60;;;;;;5044238;28;20293;-65
2021/03/04 13:01:56;;;;;;;6.55;5.45;;;25.90;26.70;;;;;;5048321;28;20126;-66
2021/03/04 13:04:26;;;;;;;7.82;6.18;;;25.80;26.60;;;;;;5032993;28;20102;-65
2021/03/04 13:06:54;;;;;;;7.80;5.97;;;25.90;26.70;;;;;;5043583;28;20047;-68
2021/03/04 13:09:20;;;;;;;8.00;5.50;;;25.90;26.60;;;;;;5054025;28;20083;-68